This is the latest recevied weather packets stored in our database for station/object W0JRT-6. If no packets are shown the sender has not sent any weather packets the latest 10 day(s).
| Time | Temp. | Humidity | Pressure | Rain* | Wind** | Luminosity | Snow |
|---|---|---|---|---|---|---|---|
| 1777315811 | 22.22° C | 65% | 998 hPa | 0 mm | - | - | - |
| 1777314599 | 23.33° C | 66% | 997.7 hPa | 0 mm | - | - | - |
| 1777314000 | 22.22° C | 67% | 997.5 hPa | 0 mm | - | - | - |
| 1777313408 | 22.22° C | 70% | 997.4 hPa | 0 mm | - | - | - |
| 1777312212 | 22.78° C | 68% | 997.2 hPa | 0 mm | - | - | - |
| 1777311012 | 22.22° C | 73% | 996.9 hPa | 0 mm | - | - | - |
| 1777310406 | 22.22° C | 72% | 996.8 hPa | 0 mm | - | - | - |
| 1777309199 | 22.22° C | 71% | 996.5 hPa | 0 mm | - | - | - |
| 1777308008 | 21.67° C | 76% | 996.1 hPa | 0 mm | - | - | - |
| 1777307402 | 21.11° C | 77% | 996.1 hPa | 0 mm | - | - | - |
| 1777306807 | 20.56° C | 78% | 996 hPa | 0 mm | - | - | - |
| 1777306207 | 20.56° C | 79% | 995.9 hPa | 0 mm | - | - | - |
| 1777305003 | 20.56° C | 80% | 995.7 hPa | 0 mm | - | - | - |
| 1777304406 | 20° C | 81% | 995.8 hPa | 0 mm | - | - | - |
| 1777303800 | 19.44° C | 81% | 995.9 hPa | 0 mm | - | - | - |
| 1777300869 | 18.33° C | 86% | 996.6 hPa | 0 mm | - | - | - |
| 1777300800 | 18.33° C | 86% | 996.6 hPa | 0 mm | - | - | - |
| 1777299606 | 17.78° C | 88% | 996.9 hPa | 0 mm | - | - | - |
| 1777299007 | 17.78° C | 88% | 997.1 hPa | 0 mm | - | - | - |
| 1777297809 | 16.67° C | 91% | 997.7 hPa | 0 mm | - | - | - |
| 1777297202 | 16.67° C | 92% | 997.8 hPa | 0 mm | - | - | - |
| 1777295999 | 16.11° C | 94% | 998 hPa | 0 mm | - | - | - |
| 1777295400 | 15.56° C | 94% | 998.1 hPa | 0 mm | - | - | - |
| 1777294210 | 15.56° C | 94% | 998.1 hPa | 0 mm | - | - | - |
| 1777293604 | 15.56° C | 93% | 998.4 hPa | 0 mm | - | - | - |
* Rain since midnight (hover to see other rain measurements)
** Current wind speed in m/s (hover to see current wind gust speed)